sensor_id;sensor_type;location;lat;lon;timestamp;temperature;humidity
12276;DHT22;6200;48.144;11.424;2023-02-28T00:00:51;-0.10;99.50
12276;DHT22;6200;48.144;11.424;2023-02-28T00:03:17;-0.10;99.60
12276;DHT22;6200;48.144;11.424;2023-02-28T00:05:42;-0.10;99.60
12276;DHT22;6200;48.144;11.424;2023-02-28T00:08:08;-0.10;99.60
12276;DHT22;6200;48.144;11.424;2023-02-28T00:10:34;-0.10;99.60
12276;DHT22;6200;48.144;11.424;2023-02-28T00:13:02;-0.10;99.50
12276;DHT22;6200;48.144;11.424;2023-02-28T00:15:29;0.00;99.50
12276;DHT22;6200;48.144;11.424;2023-02-28T00:17:55;-0.20;99.50
12276;DHT22;6200;48.144;11.424;2023-02-28T00:20:20;-0.10;99.60
12276;DHT22;6200;48.144;11.424;2023-02-28T00:22:48;-0.20;99.60
12276;DHT22;6200;48.144;11.424;2023-02-28T00:25:17;-0.20;99.60
12276;DHT22;6200;48.144;11.424;2023-02-28T00:27:43;-0.10;99.70
12276;DHT22;6200;48.144;11.424;2023-02-28T00:30:18;-0.20;99.70
12276;DHT22;6200;48.144;11.424;2023-02-28T00:32:44;-0.20;99.70
12276;DHT22;6200;48.144;11.424;2023-02-28T00:35:10;-0.20;99.70
12276;DHT22;6200;48.144;11.424;2023-02-28T00:37:36;-0.10;99.80
12276;DHT22;6200;48.144;11.424;2023-02-28T00:40:02;-0.10;99.80
12276;DHT22;6200;48.144;11.424;2023-02-28T00:42:30;-0.10;99.70
12276;DHT22;6200;48.144;11.424;2023-02-28T00:44:55;-0.20;99.50
12276;DHT22;6200;48.144;11.424;2023-02-28T00:47:21;-0.20;99.60
12276;DHT22;6200;48.144;11.424;2023-02-28T00:49:47;-0.20;99.60
12276;DHT22;6200;48.144;11.424;2023-02-28T00:52:12;-0.20;99.60
12276;DHT22;6200;48.144;11.424;2023-02-28T00:54:38;-0.30;99.70
12276;DHT22;6200;48.144;11.424;2023-02-28T00:57:03;-0.30;99.80
12276;DHT22;6200;48.144;11.424;2023-02-28T00:59:29;-0.30;99.80
12276;DHT22;6200;48.144;11.424;2023-02-28T01:01:54;-0.30;99.80
12276;DHT22;6200;48.144;11.424;2023-02-28T01:04:20;-0.30;99.80
12276;DHT22;6200;48.144;11.424;2023-02-28T01:06:45;-0.30;99.80
12276;DHT22;6200;48.144;11.424;2023-02-28T01:09:11;-0.40;99.80
12276;DHT22;6200;48.144;11.424;2023-02-28T01:11:37;-0.40;99.90
12276;DHT22;6200;48.144;11.424;2023-02-28T01:14:03;-0.40;99.90
12276;DHT22;6200;48.144;11.424;2023-02-28T01:16:29;-0.40;99.90
12276;DHT22;6200;48.144;11.424;2023-02-28T01:18:55;-0.40;99.90
12276;DHT22;6200;48.144;11.424;2023-02-28T01:21:23;-0.40;99.90
12276;DHT22;6200;48.144;11.424;2023-02-28T01:23:49;-0.40;99.90
12276;DHT22;6200;48.144;11.424;2023-02-28T01:26:22;-0.40;99.90
12276;DHT22;6200;48.144;11.424;2023-02-28T01:28:49;-0.40;99.90
12276;DHT22;6200;48.144;11.424;2023-02-28T01:31:15;-0.40;99.90
12276;DHT22;6200;48.144;11.424;2023-02-28T01:33:40;-0.40;99.90
12276;DHT22;6200;48.144;11.424;2023-02-28T01:36:10;-0.40;99.90
12276;DHT22;6200;48.144;11.424;2023-02-28T01:38:36;-0.40;99.90
12276;DHT22;6200;48.144;11.424;2023-02-28T01:41:03;-0.40;99.90
12276;DHT22;6200;48.144;11.424;2023-02-28T01:46:10;-0.40;99.90
12276;DHT22;6200;48.144;11.424;2023-02-28T01:48:48;-0.50;99.90
12276;DHT22;6200;48.144;11.424;2023-02-28T01:51:20;-0.50;99.90
12276;DHT22;6200;48.144;11.424;2023-02-28T01:53:57;-0.50;99.90
12276;DHT22;6200;48.144;11.424;2023-02-28T01:56:27;-0.50;99.90
12276;DHT22;6200;48.144;11.424;2023-02-28T01:58:55;-0.50;99.90
12276;DHT22;6200;48.144;11.424;2023-02-28T02:01:21;-0.50;99.90
12276;DHT22;6200;48.144;11.424;2023-02-28T02:03:54;-0.50;99.90
12276;DHT22;6200;48.144;11.424;2023-02-28T02:06:43;-0.50;99.90
12276;DHT22;6200;48.144;11.424;2023-02-28T02:09:10;-0.50;99.90
12276;DHT22;6200;48.144;11.424;2023-02-28T02:11:36;-0.50;99.90
12276;DHT22;6200;48.144;11.424;2023-02-28T02:17:20;-0.60;99.90
12276;DHT22;6200;48.144;11.424;2023-02-28T02:36:30;-0.60;99.90
12276;DHT22;6200;48.144;11.424;2023-02-28T02:39:17;-0.60;99.90
12276;DHT22;6200;48.144;11.424;2023-02-28T02:41:54;-0.70;99.90
12276;DHT22;6200;48.144;11.424;2023-02-28T02:44:23;-0.70;99.90
12276;DHT22;6200;48.144;11.424;2023-02-28T02:46:53;-0.70;99.90
12276;DHT22;6200;48.144;11.424;2023-02-28T02:49:24;-0.70;99.90
12276;DHT22;6200;48.144;11.424;2023-02-28T02:51:52;-0.70;99.90
12276;DHT22;6200;48.144;11.424;2023-02-28T02:54:25;-0.70;99.90
12276;DHT22;6200;48.144;11.424;2023-02-28T02:56:55;-0.70;99.90
12276;DHT22;6200;48.144;11.424;2023-02-28T02:59:22;-0.70;99.90
12276;DHT22;6200;48.144;11.424;2023-02-28T03:01:52;-0.70;99.90
12276;DHT22;6200;48.144;11.424;2023-02-28T03:04:21;-0.70;99.90
12276;DHT22;6200;48.144;11.424;2023-02-28T03:06:47;-0.70;99.90
12276;DHT22;6200;48.144;11.424;2023-02-28T03:09:13;-0.70;99.90
12276;DHT22;6200;48.144;11.424;2023-02-28T03:11:40;-0.70;99.90
12276;DHT22;6200;48.144;11.424;2023-02-28T03:19:38;-0.70;99.90
12276;DHT22;6200;48.144;11.424;2023-02-28T03:28:09;-0.80;99.90
12276;DHT22;6200;48.144;11.424;2023-02-28T03:30:44;-0.80;99.90
12276;DHT22;6200;48.144;11.424;2023-02-28T03:33:17;-0.90;99.90
12276;DHT22;6200;48.144;11.424;2023-02-28T03:35:51;-0.90;99.90
12276;DHT22;6200;48.144;11.424;2023-02-28T03:38:39;-0.80;99.90
12276;DHT22;6200;48.144;11.424;2023-02-28T03:41:16;-0.90;99.90
12276;DHT22;6200;48.144;11.424;2023-02-28T03:43:51;-0.90;99.90
12276;DHT22;6200;48.144;11.424;2023-02-28T03:46:22;-0.90;99.90
12276;DHT22;6200;48.144;11.424;2023-02-28T03:49:11;-0.90;99.90
12276;DHT22;6200;48.144;11.424;2023-02-28T03:51:42;-0.90;99.90
12276;DHT22;6200;48.144;11.424;2023-02-28T03:54:19;-0.90;99.90
12276;DHT22;6200;48.144;11.424;2023-02-28T03:57:37;-1.00;99.90
12276;DHT22;6200;48.144;11.424;2023-02-28T04:00:04;-1.00;99.90
12276;DHT22;6200;48.144;11.424;2023-02-28T04:02:31;-1.10;99.90
12276;DHT22;6200;48.144;11.424;2023-02-28T04:04:57;-1.10;99.90
12276;DHT22;6200;48.144;11.424;2023-02-28T04:07:22;-1.10;99.90
12276;DHT22;6200;48.144;11.424;2023-02-28T04:09:48;-1.10;99.90
12276;DHT22;6200;48.144;11.424;2023-02-28T04:12:13;-1.10;99.90
12276;DHT22;6200;48.144;11.424;2023-02-28T04:14:39;-1.10;99.90
12276;DHT22;6200;48.144;11.424;2023-02-28T04:17:04;-1.10;99.90
12276;DHT22;6200;48.144;11.424;2023-02-28T04:19:30;-1.10;99.90
12276;DHT22;6200;48.144;11.424;2023-02-28T04:21:55;-1.10;99.90
12276;DHT22;6200;48.144;11.424;2023-02-28T04:24:24;-1.00;99.90
12276;DHT22;6200;48.144;11.424;2023-02-28T04:26:52;-1.00;99.90
12276;DHT22;6200;48.144;11.424;2023-02-28T04:29:30;-1.00;99.90
12276;DHT22;6200;48.144;11.424;2023-02-28T04:31:57;-1.00;99.90
12276;DHT22;6200;48.144;11.424;2023-02-28T04:34:24;-1.00;99.90
12276;DHT22;6200;48.144;11.424;2023-02-28T04:36:50;-1.00;99.90
12276;DHT22;6200;48.144;11.424;2023-02-28T04:39:17;-0.90;99.90
12276;DHT22;6200;48.144;11.424;2023-02-28T04:41:44;-0.90;99.90
12276;DHT22;6200;48.144;11.424;2023-02-28T04:44:09;-0.90;99.90
12276;DHT22;6200;48.144;11.424;2023-02-28T04:46:35;-0.90;99.90
12276;DHT22;6200;48.144;11.424;2023-02-28T04:49:00;-0.90;99.90
12276;DHT22;6200;48.144;11.424;2023-02-28T04:51:26;-0.90;99.90
12276;DHT22;6200;48.144;11.424;2023-02-28T04:53:52;-0.80;99.90
12276;DHT22;6200;48.144;11.424;2023-02-28T04:56:18;-0.90;99.90
12276;DHT22;6200;48.144;11.424;2023-02-28T04:58:44;-0.90;99.90
12276;DHT22;6200;48.144;11.424;2023-02-28T05:01:22;-0.80;99.90
12276;DHT22;6200;48.144;11.424;2023-02-28T05:03:48;-0.80;99.90
12276;DHT22;6200;48.144;11.424;2023-02-28T05:06:14;-0.80;99.90
12276;DHT22;6200;48.144;11.424;2023-02-28T05:08:40;-0.70;99.90
12276;DHT22;6200;48.144;11.424;2023-02-28T05:11:12;-0.80;99.90
12276;DHT22;6200;48.144;11.424;2023-02-28T05:13:38;-0.80;99.90
12276;DHT22;6200;48.144;11.424;2023-02-28T05:16:04;-0.70;99.90
12276;DHT22;6200;48.144;11.424;2023-02-28T05:18:30;-0.70;99.90
12276;DHT22;6200;48.144;11.424;2023-02-28T05:20:55;-0.70;99.90
12276;DHT22;6200;48.144;11.424;2023-02-28T05:23:22;-0.60;99.90
12276;DHT22;6200;48.144;11.424;2023-02-28T05:25:48;-0.60;99.90
12276;DHT22;6200;48.144;11.424;2023-02-28T05:28:14;-0.60;99.90
12276;DHT22;6200;48.144;11.424;2023-02-28T05:30:39;-0.60;99.90
12276;DHT22;6200;48.144;11.424;2023-02-28T05:33:05;-0.60;99.90
12276;DHT22;6200;48.144;11.424;2023-02-28T05:35:31;-0.60;99.90
12276;DHT22;6200;48.144;11.424;2023-02-28T05:37:56;1.50;99.90
12276;DHT22;6200;48.144;11.424;2023-02-28T05:40:22;-0.60;99.90
12276;DHT22;6200;48.144;11.424;2023-02-28T05:42:50;-0.60;99.90
12276;DHT22;6200;48.144;11.424;2023-02-28T05:45:15;-0.50;99.90
12276;DHT22;6200;48.144;11.424;2023-02-28T05:47:42;-0.60;99.90
12276;DHT22;6200;48.144;11.424;2023-02-28T05:50:08;-0.60;99.90
12276;DHT22;6200;48.144;11.424;2023-02-28T05:52:35;-0.50;99.90
12276;DHT22;6200;48.144;11.424;2023-02-28T05:55:01;-0.50;99.90
12276;DHT22;6200;48.144;11.424;2023-02-28T05:57:27;-0.50;99.90
12276;DHT22;6200;48.144;11.424;2023-02-28T05:59:52;-0.40;99.90
12276;DHT22;6200;48.144;11.424;2023-02-28T06:02:18;-0.40;99.90
12276;DHT22;6200;48.144;11.424;2023-02-28T06:04:44;-0.40;99.90
12276;DHT22;6200;48.144;11.424;2023-02-28T06:07:10;-0.40;99.90
12276;DHT22;6200;48.144;11.424;2023-02-28T06:09:36;-0.40;99.90
12276;DHT22;6200;48.144;11.424;2023-02-28T06:12:04;-0.40;99.90
12276;DHT22;6200;48.144;11.424;2023-02-28T06:14:31;-0.30;99.90
12276;DHT22;6200;48.144;11.424;2023-02-28T06:16:58;-0.40;99.90
12276;DHT22;6200;48.144;11.424;2023-02-28T06:19:24;-0.20;99.90
12276;DHT22;6200;48.144;11.424;2023-02-28T06:21:54;-0.40;99.90
12276;DHT22;6200;48.144;11.424;2023-02-28T06:24:21;-0.30;99.90
12276;DHT22;6200;48.144;11.424;2023-02-28T06:26:48;-0.40;99.90
12276;DHT22;6200;48.144;11.424;2023-02-28T06:29:14;-0.40;99.90
12276;DHT22;6200;48.144;11.424;2023-02-28T06:31:44;-0.40;99.90
12276;DHT22;6200;48.144;11.424;2023-02-28T06:34:10;-0.40;99.90
12276;DHT22;6200;48.144;11.424;2023-02-28T06:36:39;-0.40;99.90
12276;DHT22;6200;48.144;11.424;2023-02-28T06:39:06;-0.40;99.90
12276;DHT22;6200;48.144;11.424;2023-02-28T06:41:31;-1.20;99.90
12276;DHT22;6200;48.144;11.424;2023-02-28T06:44:04;-0.40;99.90
12276;DHT22;6200;48.144;11.424;2023-02-28T06:46:31;-0.30;99.90
12276;DHT22;6200;48.144;11.424;2023-02-28T06:48:57;-0.30;99.90
12276;DHT22;6200;48.144;11.424;2023-02-28T06:51:22;-0.30;99.90
12276;DHT22;6200;48.144;11.424;2023-02-28T06:53:49;-0.30;99.90
12276;DHT22;6200;48.144;11.424;2023-02-28T06:56:16;-0.30;99.90
12276;DHT22;6200;48.144;11.424;2023-02-28T06:58:45;-0.30;99.90
12276;DHT22;6200;48.144;11.424;2023-02-28T07:01:10;-0.30;99.90
12276;DHT22;6200;48.144;11.424;2023-02-28T07:03:36;-0.20;99.90
12276;DHT22;6200;48.144;11.424;2023-02-28T07:06:02;-0.20;99.90
12276;DHT22;6200;48.144;11.424;2023-02-28T07:08:29;-0.20;99.90
12276;DHT22;6200;48.144;11.424;2023-02-28T07:10:55;-0.20;99.90
12276;DHT22;6200;48.144;11.424;2023-02-28T07:13:22;-0.20;99.90
12276;DHT22;6200;48.144;11.424;2023-02-28T07:16:02;-0.10;99.90
12276;DHT22;6200;48.144;11.424;2023-02-28T07:18:28;-0.20;99.90
12276;DHT22;6200;48.144;11.424;2023-02-28T07:20:53;-0.10;99.90
12276;DHT22;6200;48.144;11.424;2023-02-28T07:23:20;-0.20;99.90
12276;DHT22;6200;48.144;11.424;2023-02-28T07:25:45;-0.20;99.90
12276;DHT22;6200;48.144;11.424;2023-02-28T07:28:12;-0.20;99.90
12276;DHT22;6200;48.144;11.424;2023-02-28T07:30:37;-0.20;99.90
12276;DHT22;6200;48.144;11.424;2023-02-28T07:33:03;-0.20;99.90
12276;DHT22;6200;48.144;11.424;2023-02-28T07:35:30;-0.20;99.90
12276;DHT22;6200;48.144;11.424;2023-02-28T07:37:57;-0.20;99.90
12276;DHT22;6200;48.144;11.424;2023-02-28T07:40:23;-0.10;99.90
12276;DHT22;6200;48.144;11.424;2023-02-28T07:42:48;-0.10;99.90
12276;DHT22;6200;48.144;11.424;2023-02-28T07:45:14;-0.10;99.90
12276;DHT22;6200;48.144;11.424;2023-02-28T07:47:40;-0.10;99.90
12276;DHT22;6200;48.144;11.424;2023-02-28T07:50:08;-0.10;99.90
12276;DHT22;6200;48.144;11.424;2023-02-28T07:52:34;-0.20;99.90
12276;DHT22;6200;48.144;11.424;2023-02-28T07:54:59;-0.10;99.90
12276;DHT22;6200;48.144;11.424;2023-02-28T07:57:25;-0.20;99.90
12276;DHT22;6200;48.144;11.424;2023-02-28T07:59:50;-0.10;99.90
12276;DHT22;6200;48.144;11.424;2023-02-28T08:02:17;-0.10;99.90
12276;DHT22;6200;48.144;11.424;2023-02-28T08:04:44;0.00;99.90
12276;DHT22;6200;48.144;11.424;2023-02-28T08:07:09;0.10;99.90
12276;DHT22;6200;48.144;11.424;2023-02-28T08:09:42;0.00;99.90
12276;DHT22;6200;48.144;11.424;2023-02-28T08:12:08;0.00;99.90
12276;DHT22;6200;48.144;11.424;2023-02-28T08:14:34;0.00;99.90
12276;DHT22;6200;48.144;11.424;2023-02-28T08:17:00;0.00;99.90
12276;DHT22;6200;48.144;11.424;2023-02-28T08:19:26;0.00;99.90
12276;DHT22;6200;48.144;11.424;2023-02-28T08:21:52;0.00;99.90
12276;DHT22;6200;48.144;11.424;2023-02-28T08:24:17;0.00;99.90
12276;DHT22;6200;48.144;11.424;2023-02-28T08:26:43;0.00;99.90
12276;DHT22;6200;48.144;11.424;2023-02-28T08:29:08;0.00;99.90
12276;DHT22;6200;48.144;11.424;2023-02-28T08:31:34;0.10;99.90
12276;DHT22;6200;48.144;11.424;2023-02-28T08:34:10;0.10;99.90
12276;DHT22;6200;48.144;11.424;2023-02-28T08:36:37;0.10;99.90
12276;DHT22;6200;48.144;11.424;2023-02-28T08:39:03;0.10;99.90
12276;DHT22;6200;48.144;11.424;2023-02-28T08:41:29;0.10;99.90
12276;DHT22;6200;48.144;11.424;2023-02-28T08:43:54;0.10;99.90
12276;DHT22;6200;48.144;11.424;2023-02-28T08:46:20;0.10;99.90
12276;DHT22;6200;48.144;11.424;2023-02-28T08:48:46;0.10;99.90
12276;DHT22;6200;48.144;11.424;2023-02-28T08:51:15;0.10;99.90
12276;DHT22;6200;48.144;11.424;2023-02-28T08:53:44;0.10;99.90
12276;DHT22;6200;48.144;11.424;2023-02-28T08:56:12;0.10;99.90
12276;DHT22;6200;48.144;11.424;2023-02-28T08:58:38;0.10;99.90
12276;DHT22;6200;48.144;11.424;2023-02-28T09:01:13;0.10;99.90
12276;DHT22;6200;48.144;11.424;2023-02-28T09:03:40;0.20;99.90
12276;DHT22;6200;48.144;11.424;2023-02-28T09:06:11;0.20;99.90
12276;DHT22;6200;48.144;11.424;2023-02-28T09:08:37;0.20;99.90
12276;DHT22;6200;48.144;11.424;2023-02-28T09:11:03;0.20;99.90
12276;DHT22;6200;48.144;11.424;2023-02-28T09:13:29;0.30;99.90
12276;DHT22;6200;48.144;11.424;2023-02-28T09:15:58;0.30;99.90
12276;DHT22;6200;48.144;11.424;2023-02-28T09:18:24;0.30;99.90
12276;DHT22;6200;48.144;11.424;2023-02-28T09:20:50;0.30;99.90
12276;DHT22;6200;48.144;11.424;2023-02-28T09:23:15;0.30;99.90
12276;DHT22;6200;48.144;11.424;2023-02-28T09:25:52;0.30;99.90
12276;DHT22;6200;48.144;11.424;2023-02-28T09:28:19;0.30;99.90
12276;DHT22;6200;48.144;11.424;2023-02-28T09:30:48;0.40;99.90
12276;DHT22;6200;48.144;11.424;2023-02-28T09:33:15;0.40;99.90
12276;DHT22;6200;48.144;11.424;2023-02-28T09:35:41;0.40;99.90
12276;DHT22;6200;48.144;11.424;2023-02-28T09:38:08;0.40;99.90
12276;DHT22;6200;48.144;11.424;2023-02-28T09:40:58;0.50;99.90
12276;DHT22;6200;48.144;11.424;2023-02-28T09:43:27;0.50;99.90
12276;DHT22;6200;48.144;11.424;2023-02-28T09:46:02;0.60;99.90
12276;DHT22;6200;48.144;11.424;2023-02-28T09:48:38;0.60;99.90
12276;DHT22;6200;48.144;11.424;2023-02-28T09:51:14;0.60;99.90
12276;DHT22;6200;48.144;11.424;2023-02-28T09:53:41;0.60;99.90
12276;DHT22;6200;48.144;11.424;2023-02-28T09:56:21;0.60;99.90
12276;DHT22;6200;48.144;11.424;2023-02-28T10:04:57;0.70;99.90
12276;DHT22;6200;48.144;11.424;2023-02-28T10:07:39;0.80;99.90
12276;DHT22;6200;48.144;11.424;2023-02-28T10:10:21;0.90;99.90
12276;DHT22;6200;48.144;11.424;2023-02-28T10:12:48;0.90;99.90
12276;DHT22;6200;48.144;11.424;2023-02-28T10:15:17;1.00;99.90
12276;DHT22;6200;48.144;11.424;2023-02-28T10:17:47;1.00;99.90
12276;DHT22;6200;48.144;11.424;2023-02-28T10:20:20;1.20;99.90
12276;DHT22;6200;48.144;11.424;2023-02-28T10:25:34;1.10;99.90
12276;DHT22;6200;48.144;11.424;2023-02-28T10:28:12;1.20;99.90
12276;DHT22;6200;48.144;11.424;2023-02-28T10:30:45;1.20;99.90
12276;DHT22;6200;48.144;11.424;2023-02-28T10:33:34;1.20;99.90
12276;DHT22;6200;48.144;11.424;2023-02-28T10:36:01;1.30;99.90
12276;DHT22;6200;48.144;11.424;2023-02-28T10:38:36;1.30;99.90
12276;DHT22;6200;48.144;11.424;2023-02-28T10:41:08;1.50;99.90
12276;DHT22;6200;48.144;11.424;2023-02-28T10:43:35;1.30;99.90
12276;DHT22;6200;48.144;11.424;2023-02-28T10:48:45;1.30;99.90
12276;DHT22;6200;48.144;11.424;2023-02-28T10:51:16;1.30;99.90
12276;DHT22;6200;48.144;11.424;2023-02-28T10:59:02;1.30;99.90
12276;DHT22;6200;48.144;11.424;2023-02-28T11:03:57;1.30;99.90
12276;DHT22;6200;48.144;11.424;2023-02-28T11:06:30;1.30;99.90
12276;DHT22;6200;48.144;11.424;2023-02-28T11:08:58;1.30;99.90
12276;DHT22;6200;48.144;11.424;2023-02-28T11:11:27;1.40;99.90
12276;DHT22;6200;48.144;11.424;2023-02-28T11:13:56;1.50;99.90
12276;DHT22;6200;48.144;11.424;2023-02-28T11:16:32;1.60;99.90
12276;DHT22;6200;48.144;11.424;2023-02-28T11:18:58;1.60;99.90
12276;DHT22;6200;48.144;11.424;2023-02-28T11:21:31;1.80;99.90
12276;DHT22;6200;48.144;11.424;2023-02-28T11:24:04;1.70;99.80
12276;DHT22;6200;48.144;11.424;2023-02-28T11:26:42;1.80;99.90
12276;DHT22;6200;48.144;11.424;2023-02-28T11:29:19;1.90;99.60
12276;DHT22;6200;48.144;11.424;2023-02-28T11:32:21;2.00;99.40
12276;DHT22;6200;48.144;11.424;2023-02-28T11:37:35;2.00;99.30
12276;DHT22;6200;48.144;11.424;2023-02-28T11:40:02;2.10;99.30
12276;DHT22;6200;48.144;11.424;2023-02-28T11:42:33;2.20;99.50
12276;DHT22;6200;48.144;11.424;2023-02-28T11:48:17;2.30;99.10
12276;DHT22;6200;48.144;11.424;2023-02-28T11:50:57;2.30;98.90
12276;DHT22;6200;48.144;11.424;2023-02-28T11:59:01;2.40;99.00
12276;DHT22;6200;48.144;11.424;2023-02-28T12:10:09;2.70;98.30
12276;DHT22;6200;48.144;11.424;2023-02-28T12:12:49;2.80;98.60
12276;DHT22;6200;48.144;11.424;2023-02-28T12:18:47;3.00;98.10
12276;DHT22;6200;48.144;11.424;2023-02-28T12:21:25;3.10;97.90
12276;DHT22;6200;48.144;11.424;2023-02-28T12:26:47;3.20;97.70
12276;DHT22;6200;48.144;11.424;2023-02-28T12:29:28;3.30;97.60
12276;DHT22;6200;48.144;11.424;2023-02-28T12:34:36;3.50;97.60
12276;DHT22;6200;48.144;11.424;2023-02-28T12:37:10;3.60;97.30
12276;DHT22;6200;48.144;11.424;2023-02-28T12:39:44;3.70;96.90
12276;DHT22;6200;48.144;11.424;2023-02-28T12:42:14;3.80;96.70
12276;DHT22;6200;48.144;11.424;2023-02-28T12:44:50;4.00;96.50
12276;DHT22;6200;48.144;11.424;2023-02-28T12:47:18;4.10;96.40
12276;DHT22;6200;48.144;11.424;2023-02-28T12:50:13;4.20;96.40
12276;DHT22;6200;48.144;11.424;2023-02-28T12:52:54;4.30;96.10
12276;DHT22;6200;48.144;11.424;2023-02-28T12:55:33;4.50;96.20
12276;DHT22;6200;48.144;11.424;2023-02-28T12:58:17;4.60;96.00
12276;DHT22;6200;48.144;11.424;2023-02-28T13:09:12;4.90;95.60
12276;DHT22;6200;48.144;11.424;2023-02-28T13:11:50;5.00;95.60
12276;DHT22;6200;48.144;11.424;2023-02-28T13:14:24;5.10;95.10
12276;DHT22;6200;48.144;11.424;2023-02-28T13:17:09;5.10;94.50
12276;DHT22;6200;48.144;11.424;2023-02-28T13:19:44;5.00;94.50
12276;DHT22;6200;48.144;11.424;2023-02-28T13:24:52;5.20;94.70
12276;DHT22;6200;48.144;11.424;2023-02-28T13:29:43;5.10;94.30
12276;DHT22;6200;48.144;11.424;2023-02-28T13:39:58;5.30;94.30
12276;DHT22;6200;48.144;11.424;2023-02-28T13:45:28;5.30;94.10
12276;DHT22;6200;48.144;11.424;2023-02-28T13:48:03;5.30;93.90
12276;DHT22;6200;48.144;11.424;2023-02-28T13:50:33;5.10;93.90
12276;DHT22;6200;48.144;11.424;2023-02-28T13:53:26;5.10;94.50
12276;DHT22;6200;48.144;11.424;2023-02-28T13:56:09;5.10;94.60
12276;DHT22;6200;48.144;11.424;2023-02-28T13:58:54;5.00;94.40
12276;DHT22;6200;48.144;11.424;2023-02-28T14:01:31;5.00;94.40
12276;DHT22;6200;48.144;11.424;2023-02-28T14:06:38;4.80;94.30
12276;DHT22;6200;48.144;11.424;2023-02-28T14:11:38;4.70;94.80
12276;DHT22;6200;48.144;11.424;2023-02-28T14:14:08;4.70;95.00
12276;DHT22;6200;48.144;11.424;2023-02-28T14:16:45;4.60;94.80
12276;DHT22;6200;48.144;11.424;2023-02-28T14:19:31;4.60;94.80
12276;DHT22;6200;48.144;11.424;2023-02-28T14:22:25;4.60;94.80
12276;DHT22;6200;48.144;11.424;2023-02-28T14:31:22;4.50;94.90
12276;DHT22;6200;48.144;11.424;2023-02-28T14:34:05;4.30;95.00
12276;DHT22;6200;48.144;11.424;2023-02-28T14:36:41;4.30;95.20
12276;DHT22;6200;48.144;11.424;2023-02-28T14:39:15;4.20;95.30
12276;DHT22;6200;48.144;11.424;2023-02-28T14:41:43;4.20;95.40
12276;DHT22;6200;48.144;11.424;2023-02-28T14:44:24;4.20;95.50
12276;DHT22;6200;48.144;11.424;2023-02-28T14:46:53;4.20;95.40
12276;DHT22;6200;48.144;11.424;2023-02-28T14:54:28;4.20;95.40
12276;DHT22;6200;48.144;11.424;2023-02-28T14:56:54;4.30;95.40
12276;DHT22;6200;48.144;11.424;2023-02-28T14:59:26;4.30;95.50
12276;DHT22;6200;48.144;11.424;2023-02-28T15:01:52;4.30;95.30
12276;DHT22;6200;48.144;11.424;2023-02-28T15:04:26;4.40;95.40
12276;DHT22;6200;48.144;11.424;2023-02-28T15:07:13;4.40;95.30
12276;DHT22;6200;48.144;11.424;2023-02-28T15:09:39;4.40;95.10
12276;DHT22;6200;48.144;11.424;2023-02-28T15:12:05;4.40;95.00
12276;DHT22;6200;48.144;11.424;2023-02-28T15:14:31;4.50;95.20
12276;DHT22;6200;48.144;11.424;2023-02-28T15:17:01;4.50;95.30
12276;DHT22;6200;48.144;11.424;2023-02-28T15:19:30;4.50;95.20
12276;DHT22;6200;48.144;11.424;2023-02-28T15:22:02;4.50;95.10
12276;DHT22;6200;48.144;11.424;2023-02-28T15:24:41;4.40;95.20
12276;DHT22;6200;48.144;11.424;2023-02-28T15:27:27;4.50;95.40
12276;DHT22;6200;48.144;11.424;2023-02-28T15:29:58;4.50;95.60
12276;DHT22;6200;48.144;11.424;2023-02-28T15:32:38;4.40;95.20
12276;DHT22;6200;48.144;11.424;2023-02-28T15:38:23;4.40;95.10
12276;DHT22;6200;48.144;11.424;2023-02-28T15:40:52;4.30;95.00
12276;DHT22;6200;48.144;11.424;2023-02-28T15:43:27;4.30;95.30
12276;DHT22;6200;48.144;11.424;2023-02-28T15:45:57;4.30;95.40
12276;DHT22;6200;48.144;11.424;2023-02-28T15:56:26;4.10;95.60
12276;DHT22;6200;48.144;11.424;2023-02-28T15:58:56;4.10;95.70
12276;DHT22;6200;48.144;11.424;2023-02-28T16:01:28;4.10;95.70
12276;DHT22;6200;48.144;11.424;2023-02-28T16:03:59;4.00;95.70
12276;DHT22;6200;48.144;11.424;2023-02-28T16:09:23;4.00;96.00
12276;DHT22;6200;48.144;11.424;2023-02-28T16:11:50;4.00;96.00
12276;DHT22;6200;48.144;11.424;2023-02-28T16:14:19;4.00;96.00
12276;DHT22;6200;48.144;11.424;2023-02-28T16:16:48;4.00;96.20
12276;DHT22;6200;48.144;11.424;2023-02-28T16:19:14;4.00;96.30
12276;DHT22;6200;48.144;11.424;2023-02-28T16:21:39;4.00;96.20
12276;DHT22;6200;48.144;11.424;2023-02-28T16:24:06;4.00;96.10
12276;DHT22;6200;48.144;11.424;2023-02-28T16:26:31;4.00;96.30
12276;DHT22;6200;48.144;11.424;2023-02-28T16:29:00;4.10;96.40
12276;DHT22;6200;48.144;11.424;2023-02-28T16:31:26;4.10;96.40
12276;DHT22;6200;48.144;11.424;2023-02-28T16:33:51;4.10;96.40
12276;DHT22;6200;48.144;11.424;2023-02-28T16:36:19;4.10;96.40
12276;DHT22;6200;48.144;11.424;2023-02-28T16:38:45;4.10;96.50
12276;DHT22;6200;48.144;11.424;2023-02-28T16:41:23;4.10;96.40
12276;DHT22;6200;48.144;11.424;2023-02-28T16:43:51;4.10;96.40
12276;DHT22;6200;48.144;11.424;2023-02-28T16:46:18;4.10;96.50
12276;DHT22;6200;48.144;11.424;2023-02-28T16:48:45;4.00;96.40
12276;DHT22;6200;48.144;11.424;2023-02-28T16:51:15;1.90;95.80
12276;DHT22;6200;48.144;11.424;2023-02-28T16:53:41;4.00;96.40
12276;DHT22;6200;48.144;11.424;2023-02-28T16:56:20;3.90;96.30
12276;DHT22;6200;48.144;11.424;2023-02-28T16:58:47;3.90;96.30
12276;DHT22;6200;48.144;11.424;2023-02-28T17:01:13;3.90;96.40
12276;DHT22;6200;48.144;11.424;2023-02-28T17:03:39;3.90;96.50
12276;DHT22;6200;48.144;11.424;2023-02-28T17:06:06;3.90;96.60
12276;DHT22;6200;48.144;11.424;2023-02-28T17:08:32;3.80;96.60
12276;DHT22;6200;48.144;11.424;2023-02-28T17:10:58;3.80;96.80
12276;DHT22;6200;48.144;11.424;2023-02-28T17:13:24;3.80;96.70
12276;DHT22;6200;48.144;11.424;2023-02-28T17:15:49;3.80;96.60
12276;DHT22;6200;48.144;11.424;2023-02-28T17:18:17;3.80;96.70
12276;DHT22;6200;48.144;11.424;2023-02-28T17:20:47;3.80;96.70
12276;DHT22;6200;48.144;11.424;2023-02-28T17:23:13;3.70;96.70
12276;DHT22;6200;48.144;11.424;2023-02-28T17:25:38;3.70;96.70
12276;DHT22;6200;48.144;11.424;2023-02-28T17:28:04;3.70;96.80
12276;DHT22;6200;48.144;11.424;2023-02-28T17:30:33;3.70;96.90
12276;DHT22;6200;48.144;11.424;2023-02-28T17:32:59;3.70;97.10
12276;DHT22;6200;48.144;11.424;2023-02-28T17:35:24;3.70;97.20
12276;DHT22;6200;48.144;11.424;2023-02-28T17:37:52;3.70;97.30
12276;DHT22;6200;48.144;11.424;2023-02-28T17:40:21;3.70;97.20
12276;DHT22;6200;48.144;11.424;2023-02-28T17:42:48;3.70;97.30
12276;DHT22;6200;48.144;11.424;2023-02-28T17:45:14;3.70;97.30
12276;DHT22;6200;48.144;11.424;2023-02-28T17:47:41;3.70;97.40
12276;DHT22;6200;48.144;11.424;2023-02-28T17:50:18;3.70;97.60
12276;DHT22;6200;48.144;11.424;2023-02-28T17:52:44;3.60;97.80
12276;DHT22;6200;48.144;11.424;2023-02-28T17:55:10;3.60;97.50
12276;DHT22;6200;48.144;11.424;2023-02-28T17:57:36;2.40;97.20
12276;DHT22;6200;48.144;11.424;2023-02-28T18:00:02;3.60;97.60
12276;DHT22;6200;48.144;11.424;2023-02-28T18:02:32;3.90;97.70
12276;DHT22;6200;48.144;11.424;2023-02-28T18:04:57;3.60;97.60
12276;DHT22;6200;48.144;11.424;2023-02-28T18:07:24;3.60;97.70
12276;DHT22;6200;48.144;11.424;2023-02-28T18:09:49;3.60;97.70
12276;DHT22;6200;48.144;11.424;2023-02-28T18:12:15;3.60;97.80